NCAR-RAP Real-Time Weather Data

Output produced by METARs form (08 May 2021  16:17 UTC)
found at http://weather.rap.ucar.edu/surface/
 
KSEA 081553Z 20008KT 10SM BKN016 OVC021 08/04 A3038 RMK AO2 SLP295 T00830044
KSEA 081453Z 20006KT 10SM OVC016 08/04 A3037 RMK AO2 SLP292 T00780039 53008
KSEA 081353Z 16006KT 10SM BKN015 OVC030 07/04 A3036 RMK AO2 SLP288 T00720039
KSEA 081253Z 17006KT 10SM BKN016 OVC024 07/03 A3035 RMK AO2 SLP285 T00720033
KSEA 081153Z 17006KT 10SM OVC017 07/03 A3034 RMK AO2 SLP283 T00720033 10094 20067 53003
KSEA 081053Z 18006KT 10SM OVC021 07/03 A3034 RMK AO2 SLP281 T00720033
KSEA 080953Z 17007KT 10SM OVC021 07/03 A3034 RMK AO2 SLP281 T00720033
KSEA 080853Z 14009KT 10SM BKN021 07/03 A3034 RMK AO2 SLP280 T00720033 51005
KSEA 080836Z 15007KT 10SM BKN021 07/03 A3034 RMK AO2 T00720033
KSEA 080753Z 16007KT 10SM SCT020 07/03 A3033 RMK AO2 SLP279 T00720033
KSEA 080653Z 22004KT 10SM FEW025 SCT044 08/03 A3032 RMK AO2 SLP276 T00830033 401500078
KSEA 080553Z 22008KT 10SM BKN044 BKN070 09/03 A3032 RMK AO2 RAE0458 SLP274 P0000 60000 T00940033 10150 20094 51013
KSEA 080453Z 20006KT 10SM -RA BKN040 BKN070 11/04 A3031 RMK AO2 RAB48 SLP272 P0000 T01060039
KSEA 080353Z 14006KT 10SM FEW041 BKN065 11/04 A3030 RMK AO2 SLP267 T01060044
KSEA 080253Z 24003KT 10SM FEW047 BKN065 BKN120 11/04 A3028 RMK AO2 SLP261 T01060039 53009
KSEA 080153Z 01005KT 10SM FEW044 SCT055 BKN095 12/03 A3026 RMK AO2 SLP256 T01220033
KSEA 080053Z 36003KT 10SM SCT043 BKN060 13/02 A3026 RMK AO2 SLP253 T01280022
KSEA 072353Z 04005KT 10SM FEW030 BKN055 BKN075 13/04 A3025 RMK AO2 SLP252 60000 T01330039 10139 20089 51004
KSEA 072253Z 24004KT 10SM FEW039 BKN055 13/03 A3025 RMK AO2 SLP252 T01280028
KSEA 072153Z 11003KT 10SM FEW023 SCT035 SCT100 12/02 A3025 RMK AO2 SLP252 SHRA S-SE T01220022
KSEA 072053Z 31006KT 10SM FEW024 BKN039 BKN080 12/04 A3024 RMK AO2 SLP248 VCSH 60000 T01170044 51009
KSEA 072020Z 35005KT 10SM FEW022 SCT029 BKN049 13/06 A3024 RMK AO2 T01280056
KSEA 071953Z 34007KT 10SM SCT020 BKN028 11/06 A3024 RMK AO2 RAE00 SLP247 SHRA SW-W P0000 T01110056
KSEA 071853Z 25007KT 10SM -RA SCT017 BKN036 OVC044 11/05 A3023 RMK AO2 RAB45 SLP244 P0000 T01060050
KSEA 071836Z 23004KT 10SM SCT017 BKN036 OVC044 09/05 A3023 RMK AO2 T00940050
KSEA 071753Z 23007KT 10SM BKN022 OVC034 09/05 A3021 RMK AO2 SLP239 60000 T00940050 10094 20078 53013
KSEA 071653Z 22006KT 10SM OVC019 08/04 A3020 RMK AO2 SLP234 T00830039
KSEA 071553Z 23011KT 10SM BKN019 OVC023 08/04 A3019 RMK AO2 SLP229 T00830039
KSEA 071453Z 19009KT 10SM SCT013 BKN024 BKN055 08/05 A3017 RMK AO2 SLP225 60000 T00830050 53010
KSEA 071353Z 21013G19KT 10SM SCT021 BKN050 BKN080 08/05 A3016 RMK AO2 RAE22 SLP220 P0000 T00780050
KSEA 071253Z 19009KT 10SM -RA FEW012 SCT050 BKN070 OVC200 08/04 A3015 RMK AO2 RAB45 SLP216 P0000 T00780044
KSEA 071153Z 18011KT 10SM FEW020 BKN095 OVC150 08/04 A3014 RMK AO2 SLP214 T00780044 10094 20078 53006
KSEA 071053Z 19011KT 10SM FEW070 BKN110 OVC160 08/04 A3013 RMK AO2 SLP210 T00780044
KSEA 070953Z 18009KT 10SM FEW035 SCT070 OVC110 08/04 A3012 RMK AO2 SLP207 T00780044
KSEA 070853Z 20010KT 10SM FEW017 FEW035 BKN085 OVC140 09/06 A3013 RMK AO2 SLP208 T00890056 51011
KSEA 070753Z 18012KT 10SM SCT020 BKN150 09/06 A3012 RMK AO2 SLP205 T00890056
KSEA 070653Z 20014KT 10SM SCT020 09/06 A3011 RMK AO2 SLP202 T00890056 402000089
KSEA 070553Z 21013G20KT 10SM FEW025 09/06 A3009 RMK AO2 SLP197 T00940056 10150 20094 53016
KSEA 070453Z 20014G22KT 10SM FEW030 10/06 A3008 RMK AO2 SLP191 T01000056
KSEA 070353Z 21015KT 10SM FEW030 11/06 A3006 RMK AO2 SLP185 T01060056
KSEA 070253Z 22012KT 10SM SCT036 BKN060 12/07 A3005 RMK AO2 SLP181 T01170072 53011
KSEA 070153Z 20011KT 10SM FEW036 BKN050 BKN200 12/09 A3003 RMK AO2 SLP175 T01170089
KSEA 070053Z 23011KT 10SM SCT037 BKN100 14/08 A3001 RMK AO2 SLP169 T01440078
KSEA 062353Z 20008KT 10SM FEW020 BKN050 BKN100 BKN200 14/09 A3001 RMK AO2 RAE12 SLP169 P0000 60000 T01390089 10200 20128 51019
KSEA 062253Z 22008KT 10SM -RA FEW018 BKN075 BKN150 14/11 A3001 RMK AO2 RAB2159E16B53 SLP168 P0000 T01440106
KSEA 062153Z 23013KT 10SM FEW035 BKN060 BKN200 15/09 A2999 RMK AO2 PK WND 23026/2103 RAB23E36 SLP161 P0000 T01500094
KSEA 062053Z 24017G22KT 10SM FEW035 BKN075 BKN200 19/08 A2996 RMK AO2 SLP149 SHRA W T01890083 53013
KSEA 061953Z 19010KT 10SM FEW060 SCT120 BKN200 17/08 A2994 RMK AO2 SLP144 T01670083
KSEA 061853Z 21008KT 10SM SCT060 BKN130 BKN210 16/08 A2993 RMK AO2 SLP140 T01560078
KSEA 061753Z 19011KT 10SM FEW050 SCT130 OVC200 14/08 A2992 RMK AO2 SLP136 60000 T01440083 10150 20133 51015
KSEA 061653Z 21011KT 10SM FEW050 BKN130 OVC200 14/08 A2990 RMK AO2 SLP131 T01440078